createdAt,value
2022-12-04T00:00:39.707Z,40.23
2022-12-04T00:03:24.592Z,39.33
2022-12-04T00:06:12.922Z,39.80
2022-12-04T00:08:57.910Z,38.53
2022-12-04T00:11:42.874Z,40.23
2022-12-04T00:14:28.314Z,39.97
2022-12-04T00:17:13.220Z,38.73
2022-12-04T00:19:58.039Z,38.30
2022-12-04T00:22:42.972Z,37.97
2022-12-04T00:25:30.117Z,38.00
2022-12-04T00:28:19.028Z,36.93
2022-12-04T00:31:09.854Z,35.97
2022-12-04T00:33:55.225Z,34.63
2022-12-04T00:36:40.446Z,36.10
2022-12-04T00:39:25.634Z,35.27
2022-12-04T00:42:10.483Z,35.97
2022-12-04T00:44:55.623Z,36.00
2022-12-04T00:47:40.511Z,35.90
2022-12-04T00:50:25.364Z,33.33
2022-12-04T00:53:10.500Z,33.73
2022-12-04T00:55:56.021Z,33.63
2022-12-04T00:58:42.791Z,35.77
2022-12-04T01:01:29.343Z,36.07
2022-12-04T01:04:14.674Z,34.50
2022-12-04T01:07:04.735Z,34.47
2022-12-04T01:09:50.225Z,34.80
2022-12-04T01:12:35.192Z,34.73
2022-12-04T01:15:21.105Z,32.10
2022-12-04T01:18:06.712Z,33.67
2022-12-04T01:20:52.349Z,33.20
2022-12-04T01:23:37.428Z,34.43
2022-12-04T01:26:22.258Z,34.57
2022-12-04T01:29:07.465Z,35.20
2022-12-04T01:31:52.924Z,35.17
2022-12-04T01:34:38.283Z,34.63
2022-12-04T01:37:23.661Z,34.40
2022-12-04T01:40:14.101Z,33.83
2022-12-04T01:42:59.832Z,34.17
2022-12-04T01:45:48.463Z,32.03
2022-12-04T01:48:38.065Z,32.67
2022-12-04T01:51:25.033Z,30.57
2022-12-04T01:54:39.738Z,33.43
2022-12-04T01:57:27.819Z,32.13
2022-12-04T02:00:15.596Z,32.10
2022-12-04T02:03:01.462Z,33.60
2022-12-04T02:05:46.506Z,33.47
2022-12-04T02:08:32.644Z,32.93
2022-12-04T02:11:44.043Z,32.20
2022-12-04T02:14:59.202Z,33.07
2022-12-04T02:17:59.400Z,34.10
2022-12-04T02:20:56.617Z,32.27
2022-12-04T02:23:41.981Z,34.87
2022-12-04T02:26:30.048Z,33.20
2022-12-04T02:29:32.840Z,33.43
2022-12-04T02:32:51.313Z,31.80
2022-12-04T02:35:46.027Z,31.50
2022-12-04T02:38:42.808Z,31.40
2022-12-04T02:41:34.994Z,32.93
2022-12-04T02:44:34.023Z,31.67
2022-12-04T02:47:23.704Z,30.30
2022-12-04T02:50:13.463Z,32.53
2022-12-04T02:53:07.465Z,31.40
2022-12-04T02:55:59.228Z,31.33
2022-12-04T02:58:53.169Z,32.23
2022-12-04T03:01:43.530Z,32.20
2022-12-04T03:04:29.880Z,31.40
2022-12-04T03:07:19.483Z,31.67
2022-12-04T03:10:10.692Z,32.17
2022-12-04T03:13:03.273Z,32.23
2022-12-04T03:15:54.402Z,30.83
2022-12-04T03:18:43.470Z,32.07
2022-12-04T03:21:32.543Z,31.07
2022-12-04T03:24:24.448Z,30.13
2022-12-04T03:27:21.636Z,30.10
2022-12-04T03:30:10.708Z,28.73
2022-12-04T03:33:06.759Z,28.17
2022-12-04T03:36:25.315Z,28.90
2022-12-04T03:39:16.565Z,29.13
2022-12-04T03:42:27.956Z,27.50
2022-12-04T03:45:22.191Z,27.87
2022-12-04T03:48:22.903Z,26.53
2022-12-04T03:51:13.775Z,28.03
2022-12-04T03:54:07.772Z,25.93
2022-12-04T03:56:58.328Z,26.97
2022-12-04T03:59:55.394Z,28.27
2022-12-04T04:02:47.925Z,28.10
2022-12-04T04:05:34.917Z,26.73
2022-12-04T04:08:26.784Z,27.30
2022-12-04T04:11:20.904Z,26.13
2022-12-04T04:14:13.208Z,26.07
2022-12-04T04:17:06.496Z,28.57
2022-12-04T04:20:00.824Z,25.87
2022-12-04T04:22:54.452Z,25.93
2022-12-04T04:25:43.291Z,25.00
2022-12-04T04:28:31.379Z,25.03
2022-12-04T04:31:31.573Z,25.13
2022-12-04T04:34:34.762Z,26.87
2022-12-04T04:37:25.976Z,25.03
2022-12-04T04:40:16.574Z,25.73
2022-12-04T04:43:17.108Z,27.00
2022-12-04T04:46:11.321Z,23.50
2022-12-04T04:49:00.656Z,24.47
2022-12-04T04:51:46.359Z,27.20
2022-12-04T04:54:33.770Z,24.87
2022-12-04T04:57:30.714Z,24.23
2022-12-04T05:00:20.071Z,28.13
2022-12-04T05:03:05.995Z,26.07
2022-12-04T05:05:51.151Z,25.40
2022-12-04T05:08:36.526Z,25.70
2022-12-04T05:11:21.656Z,27.17
2022-12-04T05:14:06.604Z,25.80
2022-12-04T05:16:51.408Z,25.03
2022-12-04T05:19:36.295Z,26.00
2022-12-04T05:22:26.891Z,25.13
2022-12-04T05:25:12.078Z,24.03
2022-12-04T05:27:57.051Z,26.23
2022-12-04T05:30:42.115Z,24.77
2022-12-04T05:33:28.191Z,26.30
2022-12-04T05:36:13.407Z,25.90
2022-12-04T05:38:58.801Z,24.97
2022-12-04T05:41:44.234Z,23.50
2022-12-04T05:44:29.255Z,23.80
2022-12-04T05:47:14.524Z,21.83
2022-12-04T05:49:59.301Z,23.73
2022-12-04T05:52:44.742Z,22.97
2022-12-04T05:55:29.564Z,24.77
2022-12-04T05:58:14.523Z,22.23
2022-12-04T06:00:59.402Z,21.27
2022-12-04T06:03:44.804Z,22.73
2022-12-04T06:06:30.051Z,21.50
2022-12-04T06:09:14.901Z,24.77
2022-12-04T06:11:59.885Z,24.30
2022-12-04T06:14:44.626Z,23.23
2022-12-04T06:17:29.544Z,24.10
2022-12-04T06:20:15.019Z,24.83
2022-12-04T06:23:00.401Z,23.90
2022-12-04T06:25:45.646Z,26.70
2022-12-04T06:28:30.597Z,23.20
2022-12-04T06:31:17.107Z,21.90
2022-12-04T06:34:02.091Z,22.13
2022-12-04T06:36:47.293Z,24.30
2022-12-04T06:39:32.142Z,22.77
2022-12-04T06:42:17.218Z,20.57
2022-12-04T06:45:02.163Z,20.80
2022-12-04T06:47:47.570Z,20.70
2022-12-04T06:50:32.316Z,22.13
2022-12-04T06:53:17.756Z,20.67
2022-12-04T06:56:06.387Z,20.57
2022-12-04T06:58:55.274Z,22.03
2022-12-04T07:01:40.469Z,21.27
2022-12-04T07:04:25.755Z,21.50
2022-12-04T07:07:10.768Z,20.50
2022-12-04T07:09:56.018Z,19.47
2022-12-04T07:12:41.349Z,20.83
2022-12-04T07:15:26.267Z,18.93
2022-12-04T07:18:11.108Z,20.93
2022-12-04T07:20:56.243Z,20.17
2022-12-04T07:23:41.311Z,20.40
2022-12-04T07:26:28.714Z,19.83
2022-12-04T07:29:13.785Z,19.70
2022-12-04T07:31:59.074Z,19.47
2022-12-04T07:34:44.359Z,18.97
2022-12-04T07:37:29.128Z,18.80
2022-12-04T07:40:14.237Z,19.07
2022-12-04T07:42:59.257Z,18.67
2022-12-04T07:45:44.221Z,18.90
2022-12-04T07:48:33.345Z,19.73
2022-12-04T07:51:21.490Z,18.77
2022-12-04T07:54:06.767Z,20.00
2022-12-04T07:56:51.674Z,19.80
2022-12-04T07:59:36.695Z,18.67
2022-12-04T08:02:21.879Z,19.40
2022-12-04T08:05:07.252Z,19.70
2022-12-04T08:07:53.226Z,20.17
2022-12-04T08:10:41.726Z,18.67
2022-12-04T08:13:26.781Z,18.37
2022-12-04T08:16:12.899Z,19.70
2022-12-04T08:18:58.318Z,19.73
2022-12-04T08:21:43.579Z,19.23
2022-12-04T08:24:28.503Z,20.10
2022-12-04T08:27:14.158Z,18.93
2022-12-04T08:29:59.545Z,20.03
2022-12-04T08:32:44.816Z,20.10
2022-12-04T08:35:29.748Z,21.63
2022-12-04T08:38:14.605Z,19.50
2022-12-04T08:41:01.964Z,20.07
2022-12-04T08:43:47.386Z,22.60
2022-12-04T08:46:33.534Z,21.07
2022-12-04T08:49:19.068Z,20.67
2022-12-04T08:52:04.361Z,21.20
2022-12-04T08:54:50.591Z,21.60
2022-12-04T08:57:35.729Z,21.50
2022-12-04T09:00:20.836Z,20.03
2022-12-04T09:03:06.156Z,20.17
2022-12-04T09:05:51.278Z,20.40
2022-12-04T09:08:37.521Z,19.53
2022-12-04T09:11:25.007Z,21.37
2022-12-04T09:14:09.931Z,21.77
2022-12-04T09:16:55.001Z,20.33
2022-12-04T09:19:41.451Z,21.77
2022-12-04T09:22:36.112Z,25.07
2022-12-04T09:25:31.695Z,46.97
2022-12-04T09:28:17.100Z,21.33
2022-12-04T09:31:04.645Z,21.53
2022-12-04T09:33:50.043Z,23.07
2022-12-04T09:36:35.056Z,22.90
2022-12-04T09:39:19.932Z,22.33
2022-12-04T09:42:45.816Z,22.70
2022-12-04T09:45:42.436Z,24.23
2022-12-04T09:48:34.216Z,24.53
2022-12-04T09:51:22.881Z,22.97
2022-12-04T09:54:15.270Z,25.17
2022-12-04T09:57:05.806Z,24.23
2022-12-04T09:59:53.043Z,22.67
2022-12-04T10:02:41.293Z,24.73
2022-12-04T10:05:42.204Z,26.30
2022-12-04T10:08:31.659Z,24.17
2022-12-04T10:11:32.072Z,26.07
2022-12-04T10:15:08.545Z,24.70
2022-12-04T10:18:06.379Z,24.37
2022-12-04T10:20:58.093Z,25.13
2022-12-04T10:23:46.305Z,28.83
2022-12-04T10:26:41.325Z,26.30
2022-12-04T10:29:30.855Z,26.83
2022-12-04T10:32:23.168Z,26.63
2022-12-04T10:35:20.675Z,28.90
2022-12-04T10:38:28.099Z,29.80
2022-12-04T10:41:28.496Z,28.50
2022-12-04T10:44:16.024Z,29.47
2022-12-04T10:47:03.854Z,30.17
2022-12-04T10:49:58.708Z,29.10
2022-12-04T10:52:44.013Z,30.83
2022-12-04T10:55:34.555Z,31.03
2022-12-04T10:58:19.748Z,30.63
2022-12-04T11:01:08.315Z,31.23
2022-12-04T11:04:07.356Z,29.83
2022-12-04T11:07:15.804Z,30.53
2022-12-04T11:10:06.957Z,31.07
2022-12-04T11:13:01.032Z,31.13
2022-12-04T11:15:49.684Z,31.93
2022-12-04T11:18:47.664Z,31.93
2022-12-04T11:21:32.755Z,33.07
2022-12-04T11:24:26.266Z,33.53
2022-12-04T11:27:25.981Z,32.63
2022-12-04T11:30:18.885Z,31.17
2022-12-04T11:33:08.196Z,32.87
2022-12-04T11:35:57.079Z,31.43
2022-12-04T11:38:41.898Z,33.93
2022-12-04T11:41:30.352Z,62.47
2022-12-04T11:44:26.780Z,34.30
2022-12-04T11:47:18.336Z,36.07
2022-12-04T11:50:17.761Z,34.93
2022-12-04T11:53:14.813Z,34.43
2022-12-04T11:56:12.893Z,35.43
2022-12-04T11:59:00.790Z,36.47
2022-12-04T12:02:12.079Z,36.83
2022-12-04T12:05:08.437Z,36.73
2022-12-04T12:08:14.221Z,36.87
2022-12-04T12:11:23.615Z,36.03
2022-12-04T12:14:56.966Z,36.83
2022-12-04T12:18:05.064Z,34.00
2022-12-04T12:21:08.007Z,33.80
2022-12-04T12:24:09.265Z,35.87
2022-12-04T12:27:15.580Z,34.57
2022-12-04T12:30:14.410Z,33.37
2022-12-04T12:33:19.816Z,33.97
2022-12-04T12:36:09.629Z,36.47
2022-12-04T12:39:00.832Z,34.40
2022-12-04T12:41:53.042Z,34.90
2022-12-04T12:44:57.323Z,34.37
2022-12-04T12:47:46.237Z,32.90
2022-12-04T12:50:38.910Z,35.43
2022-12-04T12:53:28.994Z,35.00
2022-12-04T12:56:14.272Z,34.43
2022-12-04T12:59:03.488Z,35.07
2022-12-04T13:02:06.537Z,34.50
2022-12-04T13:04:53.671Z,33.73
2022-12-04T13:07:57.357Z,34.47
2022-12-04T13:10:47.833Z,33.33
2022-12-04T13:13:36.558Z,33.33
2022-12-04T13:16:26.721Z,34.60
2022-12-04T13:19:24.683Z,33.83
2022-12-04T13:22:26.709Z,33.67
2022-12-04T13:25:19.132Z,31.70
2022-12-04T13:28:22.187Z,33.73
2022-12-04T13:31:41.999Z,34.33
2022-12-04T13:34:33.369Z,32.27
2022-12-04T13:37:38.166Z,32.43
2022-12-04T13:40:42.822Z,35.77
2022-12-04T13:43:50.462Z,32.77
2022-12-04T13:46:41.970Z,32.83
2022-12-04T13:49:32.872Z,34.17
2022-12-04T13:52:37.951Z,33.27
2022-12-04T13:55:32.734Z,33.37
2022-12-04T13:58:17.510Z,34.50
2022-12-04T14:01:06.958Z,34.17
2022-12-04T14:03:54.381Z,35.53
2022-12-04T14:06:43.465Z,34.23
2022-12-04T14:09:35.383Z,37.03
2022-12-04T14:12:26.021Z,34.13
2022-12-04T14:15:23.277Z,35.73
2022-12-04T14:18:11.455Z,98.53
2022-12-04T14:21:05.270Z,34.47
2022-12-04T14:23:52.231Z,31.77
2022-12-04T14:29:58.912Z,35.80
2022-12-04T14:32:44.830Z,34.47
2022-12-04T14:35:30.063Z,33.33
2022-12-04T14:38:20.034Z,36.10
2022-12-04T14:41:05.188Z,32.00
2022-12-04T14:43:50.592Z,32.60
2022-12-04T14:46:44.113Z,34.67
2022-12-04T14:49:35.428Z,32.43
2022-12-04T14:52:38.564Z,33.00
2022-12-04T14:55:40.066Z,32.20
2022-12-04T14:58:33.997Z,34.23
2022-12-04T15:01:30.166Z,32.10
2022-12-04T15:04:21.680Z,34.67
2022-12-04T15:07:06.880Z,33.83
2022-12-04T15:10:01.054Z,34.73
2022-12-04T15:12:53.070Z,33.17
2022-12-04T15:15:45.655Z,36.47
2022-12-04T15:18:33.223Z,36.50
2022-12-04T15:21:21.214Z,36.70
2022-12-04T15:24:15.049Z,38.87
2022-12-04T15:27:00.664Z,36.10
2022-12-04T15:29:46.563Z,36.57
2022-12-04T15:32:32.823Z,35.17
2022-12-04T15:35:29.735Z,35.30
2022-12-04T15:38:15.984Z,35.47
2022-12-04T15:41:01.484Z,33.57
2022-12-04T15:43:46.693Z,34.97
2022-12-04T15:46:35.245Z,34.40
2022-12-04T15:49:26.007Z,34.70
2022-12-04T15:52:17.202Z,34.97
2022-12-04T15:55:06.619Z,34.20
2022-12-04T15:58:04.691Z,35.90
2022-12-04T16:00:56.356Z,35.80
2022-12-04T16:03:41.384Z,34.57
2022-12-04T16:06:30.023Z,34.13
2022-12-04T16:09:23.314Z,32.77
2022-12-04T16:12:23.895Z,31.87
2022-12-04T16:15:09.335Z,33.77
2022-12-04T16:17:54.580Z,34.63
2022-12-04T16:20:40.863Z,34.43
2022-12-04T16:23:26.826Z,31.70
2022-12-04T16:26:13.774Z,32.63
2022-12-04T16:28:59.212Z,32.63
2022-12-04T16:31:44.712Z,31.07
2022-12-04T16:34:30.455Z,31.60
2022-12-04T16:37:21.416Z,32.93
2022-12-04T16:40:07.607Z,32.23
2022-12-04T16:42:52.892Z,32.07
2022-12-04T16:45:37.922Z,31.77
2022-12-04T16:48:23.216Z,32.83
2022-12-04T16:51:20.959Z,32.47
2022-12-04T16:54:06.134Z,32.73
2022-12-04T16:56:51.483Z,34.20
2022-12-04T16:59:37.712Z,35.20
2022-12-04T17:02:26.560Z,31.63
2022-12-04T17:05:26.540Z,30.63
2022-12-04T17:08:11.552Z,31.73
2022-12-04T17:10:57.376Z,32.17
2022-12-04T17:13:43.227Z,30.50
2022-12-04T17:16:28.312Z,32.07
2022-12-04T17:19:14.441Z,29.77
2022-12-04T17:21:59.474Z,32.20
2022-12-04T17:24:50.302Z,31.07
2022-12-04T17:27:39.804Z,32.17
2022-12-04T17:30:25.227Z,31.70
2022-12-04T17:33:10.228Z,30.03
2022-12-04T17:35:56.049Z,29.50
2022-12-04T17:38:41.796Z,29.50
2022-12-04T17:41:27.364Z,31.70
2022-12-04T17:44:12.417Z,31.00
2022-12-04T17:46:57.818Z,31.90
2022-12-04T17:49:43.616Z,30.00
2022-12-04T17:52:29.142Z,31.90
2022-12-04T17:55:14.438Z,30.30
2022-12-04T17:57:59.455Z,30.60
2022-12-04T18:00:44.509Z,29.53
2022-12-04T18:03:29.905Z,28.07
2022-12-04T18:06:18.222Z,29.43
2022-12-04T18:09:04.580Z,29.80
2022-12-04T18:11:49.782Z,30.07
2022-12-04T18:14:35.231Z,31.27
2022-12-04T18:17:21.354Z,31.70
2022-12-04T18:20:07.516Z,33.30
2022-12-04T18:22:53.037Z,34.73
2022-12-04T18:25:37.972Z,31.37
2022-12-04T18:28:22.791Z,33.73
2022-12-04T18:31:08.435Z,31.17
2022-12-04T18:33:53.470Z,29.43
2022-12-04T18:36:39.769Z,30.53
2022-12-04T18:39:26.124Z,28.57
2022-12-04T18:42:11.083Z,28.93
2022-12-04T18:44:55.946Z,28.57
2022-12-04T18:47:41.018Z,28.83
2022-12-04T18:50:25.818Z,29.27
2022-12-04T18:53:10.717Z,29.00
2022-12-04T18:55:56.258Z,29.00
2022-12-04T18:58:41.942Z,27.30
2022-12-04T19:01:28.331Z,27.87
2022-12-04T19:04:14.389Z,27.30
2022-12-04T19:06:59.261Z,28.97
2022-12-04T19:12:49.516Z,27.93
2022-12-04T19:15:34.427Z,28.67
2022-12-04T19:18:19.202Z,27.50
2022-12-04T19:21:08.191Z,27.93
2022-12-04T19:23:58.320Z,28.23
2022-12-04T19:26:44.419Z,28.23
2022-12-04T19:29:29.481Z,28.50
2022-12-04T19:32:15.074Z,26.87
2022-12-04T19:35:00.073Z,27.40
2022-12-04T19:37:51.159Z,28.67
2022-12-04T19:40:37.586Z,27.63
2022-12-04T19:43:23.437Z,27.83
2022-12-04T19:46:11.107Z,27.63
2022-12-04T19:48:58.857Z,29.90
2022-12-04T19:51:43.688Z,27.83
2022-12-04T19:54:29.687Z,29.67
2022-12-04T19:57:14.629Z,27.30
2022-12-04T20:00:00.354Z,27.50
2022-12-04T20:02:45.525Z,27.30
2022-12-04T20:05:30.557Z,26.57
2022-12-04T20:08:15.705Z,27.70
2022-12-04T20:11:05.971Z,26.67
2022-12-04T20:13:51.788Z,25.63
2022-12-04T20:16:37.597Z,26.97
2022-12-04T20:19:22.926Z,27.43
2022-12-04T20:22:07.860Z,26.37
2022-12-04T20:24:52.749Z,26.77
2022-12-04T20:27:38.208Z,25.40
2022-12-04T20:30:23.178Z,25.07
2022-12-04T20:33:08.637Z,25.83
2022-12-04T20:35:53.636Z,25.87
2022-12-04T20:38:41.094Z,24.30
2022-12-04T20:41:28.566Z,24.67
2022-12-04T20:44:16.196Z,24.93
2022-12-04T20:47:01.721Z,24.30
2022-12-04T20:49:46.740Z,24.67
2022-12-04T20:52:33.064Z,24.90
2022-12-04T20:55:18.134Z,25.97
2022-12-04T20:58:03.385Z,25.10
2022-12-04T21:00:48.756Z,24.57
2022-12-04T21:03:33.621Z,25.40
2022-12-04T21:06:35.053Z,25.40
2022-12-04T21:09:24.041Z,24.83
2022-12-04T21:12:09.613Z,24.87
2022-12-04T21:14:54.987Z,26.30
2022-12-04T21:17:40.629Z,25.40
2022-12-04T21:20:25.690Z,25.97
2022-12-04T21:23:10.494Z,25.70
2022-12-04T21:25:55.761Z,25.33
2022-12-04T21:28:40.698Z,26.50
2022-12-04T21:31:26.712Z,26.00
2022-12-04T21:34:14.509Z,25.13
2022-12-04T21:36:59.853Z,25.10
2022-12-04T21:39:44.912Z,25.57
2022-12-04T21:42:30.332Z,24.83
2022-12-04T21:45:15.941Z,25.77
2022-12-04T21:48:00.745Z,25.57
2022-12-04T21:50:45.570Z,26.70
2022-12-04T21:53:30.381Z,26.57
2022-12-04T21:56:15.555Z,26.33
2022-12-04T21:59:01.175Z,25.80
2022-12-04T22:01:46.277Z,26.13
2022-12-04T22:04:31.672Z,26.23
2022-12-04T22:07:16.961Z,25.10
2022-12-04T22:10:07.074Z,27.37
2022-12-04T22:12:55.527Z,26.03
2022-12-04T22:15:42.232Z,27.00
2022-12-04T22:18:27.652Z,26.37
2022-12-04T22:21:15.277Z,26.03
2022-12-04T22:24:02.768Z,26.47
2022-12-04T22:26:47.949Z,26.13
2022-12-04T22:29:49.719Z,26.17
2022-12-04T22:32:35.410Z,26.13
2022-12-04T22:35:20.875Z,26.93
2022-12-04T22:38:06.156Z,26.57
2022-12-04T22:40:50.907Z,27.47
2022-12-04T22:43:40.731Z,26.63
2022-12-04T22:46:26.386Z,27.57
2022-12-04T22:49:11.710Z,26.33
2022-12-04T22:51:56.895Z,25.60
2022-12-04T22:54:42.087Z,25.13
2022-12-04T22:57:26.861Z,25.30
2022-12-04T23:00:12.136Z,27.03
2022-12-04T23:02:57.486Z,26.33
2022-12-04T23:05:43.025Z,26.67
2022-12-04T23:08:28.389Z,25.73
2022-12-04T23:11:21.068Z,25.53
2022-12-04T23:14:08.530Z,25.77
2022-12-04T23:16:53.758Z,26.30
2022-12-04T23:19:39.256Z,26.23
2022-12-04T23:22:24.588Z,26.00
2022-12-04T23:25:09.837Z,26.60
2022-12-04T23:27:55.010Z,26.07
2022-12-04T23:30:45.402Z,26.30
2022-12-04T23:33:31.029Z,26.20
2022-12-04T23:36:16.863Z,25.83
2022-12-04T23:39:02.623Z,24.63
2022-12-04T23:41:47.728Z,25.97
2022-12-04T23:44:32.895Z,25.83
2022-12-04T23:47:17.772Z,26.27
2022-12-04T23:50:03.355Z,27.23
2022-12-04T23:52:48.725Z,27.30
2022-12-04T23:55:34.665Z,27.33
2022-12-04T23:58:20.136Z,27.33
